createdAt,value
2022-08-24T00:01:58.239Z,101542.03
2022-08-24T00:04:26.998Z,101541.78
2022-08-24T00:06:56.547Z,101541.00
2022-08-24T00:09:24.580Z,101538.53
2022-08-24T00:11:53.918Z,101542.72
2022-08-24T00:14:21.979Z,101544.31
2022-08-24T00:16:50.127Z,101544.47
2022-08-24T00:19:18.579Z,101540.50
2022-08-24T00:21:46.635Z,101543.63
2022-08-24T00:24:14.711Z,101544.56
2022-08-24T00:26:42.862Z,101535.63
2022-08-24T00:29:12.902Z,101528.59
2022-08-24T00:31:41.320Z,101529.16
2022-08-24T00:34:09.635Z,101530.91
2022-08-24T00:36:38.167Z,101533.63
2022-08-24T00:39:06.418Z,101538.06
2022-08-24T00:41:34.976Z,101529.03
2022-08-24T00:44:05.616Z,101526.13
2022-08-24T00:46:44.423Z,101533.19
2022-08-24T00:49:19.445Z,101537.78
2022-08-24T00:51:55.564Z,101539.56
2022-08-24T00:54:26.895Z,101549.19
2022-08-24T00:56:59.942Z,101542.81
2022-08-24T00:59:43.033Z,101545.75
2022-08-24T01:02:16.182Z,101540.84
2022-08-24T01:04:50.187Z,101547.28
2022-08-24T01:07:18.439Z,101550.91
2022-08-24T01:09:46.982Z,101549.22
2022-08-24T01:12:15.088Z,101556.63
2022-08-24T01:14:43.767Z,101546.31
2022-08-24T01:17:35.039Z,101548.16
2022-08-24T01:20:09.690Z,101552.63
2022-08-24T01:22:56.107Z,101553.63
2022-08-24T01:25:27.759Z,101558.38
2022-08-24T01:27:58.123Z,101548.88
2022-08-24T01:30:30.432Z,101548.25
2022-08-24T01:33:07.136Z,101549.63
2022-08-24T01:35:36.581Z,101560.56
2022-08-24T01:38:09.801Z,101556.13
2022-08-24T01:40:45.159Z,101557.94
2022-08-24T01:43:15.045Z,101548.44
2022-08-24T01:45:43.804Z,101548.44
2022-08-24T01:48:13.827Z,101552.25
2022-08-24T01:50:42.165Z,101546.72
2022-08-24T01:53:11.001Z,101544.72
2022-08-24T01:55:41.252Z,101558.75
2022-08-24T01:58:09.329Z,101558.38
2022-08-24T02:00:38.028Z,101561.59
2022-08-24T02:03:06.687Z,101551.97
2022-08-24T02:05:36.365Z,101560.66
2022-08-24T02:08:05.043Z,101549.88
2022-08-24T02:10:33.241Z,101555.91
2022-08-24T02:13:04.743Z,101557.72
2022-08-24T02:15:35.871Z,101562.97
2022-08-24T02:18:04.647Z,101560.34
2022-08-24T02:20:32.851Z,101563.56
2022-08-24T02:23:01.554Z,101556.03
2022-08-24T02:25:30.742Z,101563.03
2022-08-24T02:27:59.554Z,101557.75
2022-08-24T02:30:30.021Z,101560.13
2022-08-24T02:32:59.167Z,101554.72
2022-08-24T02:35:28.484Z,101566.22
2022-08-24T02:37:56.888Z,101568.06
2022-08-24T02:40:25.402Z,101577.22
2022-08-24T02:42:53.644Z,101575.91
2022-08-24T02:45:21.825Z,101571.75
2022-08-24T02:47:51.259Z,101574.88
2022-08-24T02:50:19.825Z,101569.72
2022-08-24T02:52:48.620Z,101567.03
2022-08-24T02:55:20.229Z,101565.41
2022-08-24T02:57:50.502Z,101570.88
2022-08-24T03:00:21.443Z,101576.28
2022-08-24T03:02:51.491Z,101568.34
2022-08-24T03:05:20.237Z,101578.19
2022-08-24T03:07:49.089Z,101576.38
2022-08-24T03:10:21.061Z,101583.19
2022-08-24T03:12:50.185Z,101579.22
2022-08-24T03:15:21.652Z,101572.81
2022-08-24T03:17:51.579Z,101573.09
2022-08-24T03:20:22.304Z,101568.72
2022-08-24T03:22:50.369Z,101583.84
2022-08-24T03:25:20.589Z,101585.94
2022-08-24T03:27:48.613Z,101594.09
2022-08-24T03:30:18.640Z,101582.81
2022-08-24T03:32:46.786Z,101589.97
2022-08-24T03:35:17.177Z,101565.44
2022-08-24T03:37:45.205Z,101587.19
2022-08-24T03:40:22.544Z,101589.63
2022-08-24T03:42:53.372Z,101595.81
2022-08-24T03:45:22.852Z,101596.88
2022-08-24T03:47:51.740Z,101584.22
2022-08-24T03:50:21.841Z,101588.75
2022-08-24T03:52:50.336Z,101590.91
2022-08-24T03:55:19.101Z,101574.50
2022-08-24T03:57:47.190Z,101589.88
2022-08-24T04:00:16.019Z,101594.41
2022-08-24T04:02:44.973Z,101590.03
2022-08-24T04:05:14.193Z,101565.94
2022-08-24T04:07:43.556Z,101592.09
2022-08-24T04:10:13.015Z,101598.41
2022-08-24T04:12:41.121Z,101606.31
2022-08-24T04:15:10.193Z,101608.13
2022-08-24T04:17:38.381Z,101605.38
2022-08-24T04:20:07.688Z,101599.94
2022-08-24T04:22:36.395Z,101599.22
2022-08-24T04:25:09.045Z,101601.03
2022-08-24T04:27:38.964Z,101601.25
2022-08-24T04:30:07.932Z,101596.03
2022-08-24T04:32:36.290Z,101594.16
2022-08-24T04:35:06.299Z,101589.72
2022-08-24T04:37:34.326Z,101587.47
2022-08-24T04:40:03.164Z,101591.78
2022-08-24T04:42:33.724Z,101591.72
2022-08-24T04:45:01.879Z,101587.91
2022-08-24T04:47:29.877Z,101596.63
2022-08-24T04:49:57.900Z,101600.03
2022-08-24T04:52:25.948Z,101591.56
2022-08-24T04:54:54.073Z,101596.72
2022-08-24T04:57:22.241Z,101596.56
2022-08-24T04:59:51.678Z,101602.31
2022-08-24T05:02:20.927Z,101608.22
2022-08-24T05:04:49.416Z,101607.16
2022-08-24T05:07:18.375Z,101612.22
2022-08-24T05:09:47.197Z,101615.94
2022-08-24T05:12:15.304Z,101615.53
2022-08-24T05:14:43.355Z,101619.06
2022-08-24T05:17:12.751Z,101625.25
2022-08-24T05:19:40.788Z,101625.03
2022-08-24T05:22:09.135Z,101601.28
2022-08-24T05:24:37.206Z,101626.34
2022-08-24T05:27:05.668Z,101632.03
2022-08-24T05:29:34.793Z,101629.88
2022-08-24T05:32:03.062Z,101636.81
2022-08-24T05:34:34.053Z,101638.28
2022-08-24T05:37:02.041Z,101642.53
2022-08-24T05:39:31.547Z,101640.28
2022-08-24T05:42:00.893Z,101645.25
2022-08-24T05:44:31.580Z,101647.66
2022-08-24T05:47:01.162Z,101648.16
2022-08-24T05:49:30.067Z,101647.63
2022-08-24T05:51:59.863Z,101650.81
2022-08-24T05:54:27.924Z,101647.53
2022-08-24T05:56:57.326Z,101647.53
2022-08-24T05:59:27.166Z,101650.38
2022-08-24T06:01:55.300Z,101657.25
2022-08-24T06:04:23.538Z,101658.78
2022-08-24T06:06:54.429Z,101661.31
2022-08-24T06:09:23.862Z,101657.44
2022-08-24T06:11:52.575Z,101648.16
2022-08-24T06:14:25.097Z,101656.66
2022-08-24T06:16:55.227Z,101668.78
2022-08-24T06:19:24.387Z,101658.50
2022-08-24T06:21:55.928Z,101662.50
2022-08-24T06:24:46.831Z,101659.25
2022-08-24T06:27:22.352Z,101665.00
2022-08-24T06:29:52.010Z,101657.06
2022-08-24T06:32:20.170Z,101659.59
2022-08-24T06:34:48.217Z,101666.44
2022-08-24T06:37:16.428Z,101668.19
2022-08-24T06:39:46.083Z,101669.59
2022-08-24T06:42:14.089Z,101667.59
2022-08-24T06:44:42.173Z,101654.72
2022-08-24T06:47:11.289Z,101663.50
2022-08-24T06:49:39.366Z,101657.06
2022-08-24T06:52:07.572Z,101658.41
2022-08-24T06:54:35.638Z,101660.84
2022-08-24T06:57:05.786Z,101662.34
2022-08-24T06:59:34.330Z,101668.13
2022-08-24T07:02:02.645Z,101671.34
2022-08-24T07:04:30.711Z,101662.03
2022-08-24T07:06:58.722Z,101668.78
2022-08-24T07:09:27.348Z,101671.84
2022-08-24T07:11:55.479Z,101677.28
2022-08-24T07:14:25.143Z,101678.50
2022-08-24T07:16:53.213Z,101681.03
2022-08-24T07:19:21.212Z,101688.81
2022-08-24T07:21:49.289Z,101689.41
2022-08-24T07:24:17.357Z,101682.69
2022-08-24T07:26:45.429Z,101683.66
2022-08-24T07:29:45.925Z,101677.06
2022-08-24T07:32:05.472Z,101690.19
2022-08-24T07:34:33.606Z,101668.78
2022-08-24T07:37:01.617Z,101681.50
2022-08-24T07:39:30.336Z,101688.75
2022-08-24T07:42:12.704Z,101687.72
2022-08-24T07:44:43.361Z,101689.44
2022-08-24T07:47:36.871Z,101692.16
2022-08-24T07:50:01.170Z,101685.84
2022-08-24T07:52:29.176Z,101687.25
2022-08-24T07:54:57.200Z,101690.09
2022-08-24T07:57:25.618Z,101694.75
2022-08-24T07:59:56.205Z,101692.03
2022-08-24T08:02:27.000Z,101688.44
2022-08-24T08:05:05.031Z,101696.81
2022-08-24T08:07:33.433Z,101689.63
2022-08-24T08:10:03.206Z,101688.38
2022-08-24T08:12:31.238Z,101692.56
2022-08-24T08:14:59.344Z,101695.19
2022-08-24T08:17:28.836Z,101700.22
2022-08-24T08:19:56.873Z,101703.34
2022-08-24T08:22:42.368Z,101710.53
2022-08-24T08:25:10.929Z,101707.72
2022-08-24T08:27:39.057Z,101702.88
2022-08-24T08:30:08.345Z,101706.75
2022-08-24T08:32:38.092Z,101705.72
2022-08-24T08:35:07.104Z,101702.53
2022-08-24T08:40:06.534Z,101712.47
2022-08-24T08:42:49.119Z,101701.31
2022-08-24T08:45:26.325Z,101706.41
2022-08-24T08:48:21.233Z,101701.44
2022-08-24T08:51:24.806Z,101705.94
2022-08-24T08:54:12.974Z,101705.72
2022-08-24T08:56:54.973Z,101702.28
2022-08-24T08:59:45.576Z,101698.16
2022-08-24T09:02:27.372Z,101703.47
2022-08-24T09:05:15.364Z,101702.81
2022-08-24T09:07:52.673Z,101702.28
2022-08-24T09:10:33.860Z,101703.72
2022-08-24T09:13:12.976Z,101696.56
2022-08-24T09:16:11.003Z,101702.56
2022-08-24T09:18:55.654Z,101691.66
2022-08-24T09:21:54.646Z,101701.13
2022-08-24T09:24:41.796Z,101691.41
2022-08-24T09:27:21.158Z,101691.16
2022-08-24T09:30:05.397Z,101682.72
2022-08-24T09:32:44.777Z,101689.50
2022-08-24T09:35:26.686Z,101681.69
2022-08-24T09:38:01.445Z,101685.56
2022-08-24T09:41:01.587Z,101681.75
2022-08-24T09:44:06.304Z,101680.97
2022-08-24T09:47:18.513Z,101682.00
2022-08-24T09:50:13.918Z,101671.63
2022-08-24T09:53:24.204Z,101677.16
2022-08-24T09:56:11.983Z,101679.53
2022-08-24T09:58:57.715Z,101679.03
2022-08-24T10:01:34.949Z,101673.09
2022-08-24T10:04:15.501Z,101672.41
2022-08-24T10:07:01.464Z,101667.47
2022-08-24T10:09:54.105Z,101675.25
2022-08-24T10:12:35.000Z,101672.69
2022-08-24T10:15:06.894Z,101677.31
2022-08-24T10:17:46.295Z,101664.84
2022-08-24T10:20:23.782Z,101656.13
2022-08-24T10:23:11.642Z,101664.13
2022-08-24T10:25:48.813Z,101660.56
2022-08-24T10:28:43.568Z,101665.06
2022-08-24T10:31:13.409Z,101666.81
2022-08-24T10:33:53.156Z,101650.03
2022-08-24T10:36:45.405Z,101659.75
2022-08-24T10:39:41.388Z,101655.88
2022-08-24T10:43:09.325Z,101647.59
2022-08-24T10:46:18.766Z,101651.56
2022-08-24T10:49:32.850Z,101650.06
2022-08-24T10:52:32.495Z,101658.78
2022-08-24T10:55:15.813Z,101646.22
2022-08-24T10:57:55.254Z,101656.91
2022-08-24T11:00:28.998Z,101654.56
2022-08-24T11:03:09.342Z,101649.09
2022-08-24T11:05:42.472Z,101644.22
2022-08-24T11:08:19.381Z,101648.78
2022-08-24T11:11:03.324Z,101642.81
2022-08-24T11:13:33.341Z,101640.16
2022-08-24T11:16:03.058Z,101642.78
2022-08-24T11:18:49.475Z,101644.16
2022-08-24T11:21:37.368Z,101650.31
2022-08-24T11:24:08.866Z,101642.34
2022-08-24T11:26:53.643Z,101639.34
2022-08-24T11:29:30.592Z,101642.47
2022-08-24T11:31:59.964Z,101640.16
2022-08-24T11:34:36.027Z,101638.22
2022-08-24T11:37:05.703Z,101636.28
2022-08-24T11:39:37.085Z,101639.19
2022-08-24T11:42:18.384Z,101641.69
2022-08-24T11:44:55.236Z,101644.44
2022-08-24T11:47:42.812Z,101640.09
2022-08-24T11:50:22.436Z,101649.09
2022-08-24T11:53:01.640Z,101641.44
2022-08-24T11:55:47.323Z,101641.16
2022-08-24T11:58:33.180Z,101644.78
2022-08-24T12:01:09.405Z,101648.50
2022-08-24T12:03:52.799Z,101642.91
2022-08-24T12:06:35.196Z,101642.66
2022-08-24T12:09:12.700Z,101634.97
2022-08-24T12:11:50.100Z,101638.28
2022-08-24T12:14:24.107Z,101642.81
2022-08-24T12:17:00.725Z,101642.38
2022-08-24T12:19:32.126Z,101628.59
2022-08-24T12:22:04.644Z,101627.13
2022-08-24T12:24:39.983Z,101611.84
2022-08-24T12:27:11.121Z,101618.09
2022-08-24T12:29:44.601Z,101629.69
2022-08-24T12:32:19.952Z,101623.63
2022-08-24T12:34:58.548Z,101625.75
2022-08-24T12:37:32.472Z,101630.19
2022-08-24T12:40:08.768Z,101628.56
2022-08-24T12:42:48.701Z,101635.06
2022-08-24T12:45:22.310Z,101621.16
2022-08-24T12:47:57.867Z,101620.28
2022-08-24T12:50:32.257Z,101626.56
2022-08-24T12:53:34.570Z,101626.56
2022-08-24T12:56:32.797Z,101626.31
2022-08-24T12:59:19.021Z,101618.50
2022-08-24T13:01:49.673Z,101621.53
2022-08-24T13:04:34.438Z,101619.66
2022-08-24T13:07:08.040Z,101606.22
2022-08-24T13:09:39.761Z,101614.09
2022-08-24T13:12:45.066Z,101626.56
2022-08-24T13:15:44.438Z,101624.91
2022-08-24T13:18:51.258Z,101624.88
2022-08-24T13:21:50.788Z,101626.75
2022-08-24T13:24:54.445Z,101619.47
2022-08-24T13:28:02.780Z,101615.47
2022-08-24T13:30:59.110Z,101612.72
2022-08-24T13:33:32.772Z,101615.25
2022-08-24T13:36:05.956Z,101607.06
2022-08-24T13:39:02.011Z,101613.31
2022-08-24T13:41:55.158Z,101603.97
2022-08-24T13:44:30.156Z,101608.81
2022-08-24T13:47:10.767Z,101612.56
2022-08-24T13:50:01.689Z,101600.16
2022-08-24T13:52:41.316Z,101600.31
2022-08-24T13:55:32.609Z,101592.75
2022-08-24T13:58:23.054Z,101608.31
2022-08-24T14:01:01.926Z,101598.28
2022-08-24T14:03:53.788Z,101590.28
2022-08-24T14:06:33.170Z,101598.22
2022-08-24T14:09:16.398Z,101591.09
2022-08-24T14:12:17.983Z,101591.00
2022-08-24T14:15:16.253Z,101591.81
2022-08-24T14:17:54.060Z,101592.31
2022-08-24T14:20:48.711Z,101600.03
2022-08-24T14:23:29.929Z,101590.84
2022-08-24T14:26:52.958Z,101588.47
2022-08-24T14:29:47.408Z,101577.22
2022-08-24T14:32:35.849Z,101590.63
2022-08-24T14:35:33.405Z,101584.91
2022-08-24T14:38:34.847Z,101588.16
2022-08-24T14:41:15.257Z,101578.47
2022-08-24T14:44:06.959Z,101580.69
2022-08-24T14:46:44.893Z,101578.94
2022-08-24T14:49:19.361Z,101577.06
2022-08-24T14:52:08.181Z,101582.69
2022-08-24T14:54:46.461Z,101582.03
2022-08-24T14:57:33.040Z,101582.66
2022-08-24T15:00:11.917Z,101565.81
2022-08-24T15:03:13.398Z,101572.06
2022-08-24T15:05:58.938Z,101574.13
2022-08-24T15:08:42.773Z,101570.91
2022-08-24T15:11:13.409Z,101571.94
2022-08-24T15:13:46.748Z,101579.44
2022-08-24T15:16:19.750Z,101572.28
2022-08-24T15:19:04.476Z,101571.22
2022-08-24T15:21:45.423Z,101577.34
2022-08-24T15:27:07.684Z,101563.34
2022-08-24T15:29:37.796Z,101562.34
2022-08-24T15:32:10.084Z,101567.09
2022-08-24T15:34:45.701Z,101559.13
2022-08-24T15:37:15.874Z,101565.78
2022-08-24T15:39:44.395Z,101561.31
2022-08-24T15:42:15.188Z,101565.13
2022-08-24T15:44:46.246Z,101564.31
2022-08-24T15:47:22.389Z,101551.34
2022-08-24T15:49:56.321Z,101557.94
2022-08-24T15:52:48.273Z,101554.50
2022-08-24T15:55:31.398Z,101559.34
2022-08-24T15:58:12.471Z,101551.56
2022-08-24T16:00:57.958Z,101552.03
2022-08-24T16:03:29.032Z,101553.16
2022-08-24T16:06:18.777Z,101557.69
2022-08-24T16:08:58.017Z,101560.97
2022-08-24T16:11:32.013Z,101559.59
2022-08-24T16:14:00.528Z,101559.41
2022-08-24T16:16:35.525Z,101552.25
2022-08-24T16:19:08.651Z,101560.94
2022-08-24T16:21:40.749Z,101557.94
2022-08-24T16:24:13.588Z,101556.69
2022-08-24T16:26:54.669Z,101559.44
2022-08-24T16:29:45.584Z,101559.25
2022-08-24T16:32:21.581Z,101561.38
2022-08-24T16:35:17.872Z,101569.44
2022-08-24T16:37:47.427Z,101565.72
2022-08-24T16:40:15.784Z,101573.47
2022-08-24T16:42:43.913Z,101582.59
2022-08-24T16:45:17.245Z,101578.06
2022-08-24T16:47:46.862Z,101573.53
2022-08-24T16:50:17.526Z,101569.34
2022-08-24T16:52:46.961Z,101577.69
2022-08-24T16:55:15.031Z,101571.75
2022-08-24T16:57:43.710Z,101574.63
2022-08-24T17:00:17.257Z,101571.50
2022-08-24T17:02:46.585Z,101570.41
2022-08-24T17:05:15.762Z,101570.66
2022-08-24T17:07:45.006Z,101573.28
2022-08-24T17:10:17.832Z,101572.91
2022-08-24T17:12:46.884Z,101574.59
2022-08-24T17:15:16.132Z,101577.78
2022-08-24T17:17:53.750Z,101580.44
2022-08-24T17:20:22.001Z,101583.84
2022-08-24T17:22:50.053Z,101580.72
2022-08-24T17:25:19.478Z,101589.09
2022-08-24T17:27:48.236Z,101591.13
2022-08-24T17:30:18.463Z,101587.06
2022-08-24T17:32:47.887Z,101591.09
2022-08-24T17:35:16.372Z,101593.09
2022-08-24T17:37:44.725Z,101591.91
2022-08-24T17:40:15.646Z,101589.78
2022-08-24T17:42:51.334Z,101598.88
2022-08-24T17:45:20.316Z,101601.75
2022-08-24T17:47:48.363Z,101614.88
2022-08-24T17:50:19.202Z,101612.22
2022-08-24T17:52:47.972Z,101608.66
2022-08-24T17:55:24.981Z,101614.78
2022-08-24T17:57:55.103Z,101617.81
2022-08-24T18:00:23.155Z,101616.16
2022-08-24T18:02:51.152Z,101619.75
2022-08-24T18:05:19.221Z,101625.47
2022-08-24T18:07:54.052Z,101632.56
2022-08-24T18:10:27.771Z,101636.38
2022-08-24T18:12:57.923Z,101626.41
2022-08-24T18:15:34.887Z,101641.94
2022-08-24T18:18:08.605Z,101636.34
2022-08-24T18:20:39.362Z,101636.97
2022-08-24T18:23:11.325Z,101642.06
2022-08-24T18:25:45.668Z,101648.75
2022-08-24T18:28:16.564Z,101654.44
2022-08-24T18:30:45.731Z,101657.59
2022-08-24T18:33:14.100Z,101659.34
2022-08-24T18:35:42.232Z,101661.41
2022-08-24T18:38:10.270Z,101665.00
2022-08-24T18:40:39.304Z,101667.56
2022-08-24T18:43:08.225Z,101669.91
2022-08-24T18:45:37.642Z,101678.09
2022-08-24T18:48:06.116Z,101669.81
2022-08-24T18:50:37.719Z,101677.03
2022-08-24T18:53:08.718Z,101679.94
2022-08-24T18:55:38.685Z,101678.66
2022-08-24T18:58:06.877Z,101682.06
2022-08-24T19:00:35.059Z,101680.31
2022-08-24T19:03:08.271Z,101683.72
2022-08-24T19:05:36.707Z,101688.50
2022-08-24T19:08:06.620Z,101691.88
2022-08-24T19:10:38.342Z,101691.72
2022-08-24T19:13:10.422Z,101692.81
2022-08-24T19:15:40.089Z,101684.97
2022-08-24T19:18:11.546Z,101697.38
2022-08-24T19:20:47.209Z,101691.28
2022-08-24T19:23:21.102Z,101699.44
2022-08-24T19:25:50.297Z,101694.97
2022-08-24T19:28:19.334Z,101695.72
2022-08-24T19:30:48.910Z,101685.69
2022-08-24T19:33:27.276Z,101691.75
2022-08-24T19:35:55.392Z,101691.75
2022-08-24T19:38:26.204Z,101705.66
2022-08-24T19:40:57.060Z,101708.72
2022-08-24T19:43:26.341Z,101707.16
2022-08-24T19:46:06.224Z,101709.84
2022-08-24T19:48:38.045Z,101707.63
2022-08-24T19:51:08.816Z,101710.31
2022-08-24T19:53:40.033Z,101704.34
2022-08-24T19:56:08.916Z,101704.75
2022-08-24T19:58:46.489Z,101699.44
2022-08-24T20:01:19.129Z,101702.47
2022-08-24T20:03:49.029Z,101670.19
2022-08-24T20:06:21.259Z,101708.50
2022-08-24T20:08:49.802Z,101687.63
2022-08-24T20:11:18.913Z,101712.47
2022-08-24T20:13:47.397Z,101711.59
2022-08-24T20:16:19.970Z,101705.09
2022-08-24T20:18:49.693Z,101709.06
2022-08-24T20:21:17.748Z,101699.44
2022-08-24T20:23:45.949Z,101717.97
2022-08-24T20:26:14.738Z,101712.91
2022-08-24T20:28:46.614Z,101721.06
2022-08-24T20:31:15.664Z,101720.00
2022-08-24T20:33:44.119Z,101723.84
2022-08-24T20:36:26.238Z,101721.31
2022-08-24T20:38:57.344Z,101719.44
2022-08-24T20:41:27.387Z,101719.44
2022-08-24T20:43:56.198Z,101718.88
2022-08-24T20:46:24.672Z,101719.31
2022-08-24T20:48:55.600Z,101724.66
2022-08-24T20:51:25.940Z,101720.75
2022-08-24T20:53:54.441Z,101723.56
2022-08-24T20:56:30.618Z,101732.41
2022-08-24T20:59:01.670Z,101724.97
2022-08-24T21:01:29.812Z,101730.50
2022-08-24T21:04:02.824Z,101727.97
2022-08-24T21:06:35.375Z,101729.72
2022-08-24T21:09:04.895Z,101722.69
2022-08-24T21:11:33.445Z,101726.53
2022-08-24T21:14:01.648Z,101734.78
2022-08-24T21:16:29.984Z,101729.34
2022-08-24T21:18:58.132Z,101731.44
2022-08-24T21:21:26.408Z,101726.81
2022-08-24T21:23:55.753Z,101727.00
2022-08-24T21:26:27.001Z,101729.47
2022-08-24T21:28:58.012Z,101727.53
2022-08-24T21:31:26.648Z,101730.06
2022-08-24T21:34:12.489Z,101735.66
2022-08-24T21:36:41.862Z,101718.38
2022-08-24T21:39:11.415Z,101729.03
2022-08-24T21:41:39.959Z,101721.44
2022-08-24T21:44:08.146Z,101723.97
2022-08-24T21:46:38.736Z,101734.91
2022-08-24T21:49:07.143Z,101728.84
2022-08-24T21:51:40.448Z,101732.47
2022-08-24T21:54:09.139Z,101736.03
2022-08-24T21:56:39.156Z,101745.13
2022-08-24T21:59:07.658Z,101733.75
2022-08-24T22:01:35.900Z,101734.44
2022-08-24T22:04:04.861Z,101736.47
2022-08-24T22:06:33.536Z,101742.84
2022-08-24T22:09:02.051Z,101736.13
2022-08-24T22:11:30.325Z,101743.03
2022-08-24T22:13:59.874Z,101739.50
2022-08-24T22:16:27.982Z,101742.94
2022-08-24T22:18:56.068Z,101743.19
2022-08-24T22:21:26.496Z,101741.19
2022-08-24T22:23:55.321Z,101742.56
2022-08-24T22:26:26.123Z,101735.47
2022-08-24T22:28:56.553Z,101743.78
2022-08-24T22:31:29.253Z,101742.03
2022-08-24T22:33:59.355Z,101738.53
2022-08-24T22:36:28.851Z,101727.50
2022-08-24T22:38:59.002Z,101728.22
2022-08-24T22:41:28.542Z,101719.56
2022-08-24T22:44:15.978Z,101723.34
2022-08-24T22:46:46.051Z,101722.25
2022-08-24T22:49:14.552Z,101724.97
2022-08-24T22:51:43.109Z,101718.59
2022-08-24T22:54:12.200Z,101717.00
2022-08-24T22:56:42.503Z,101720.72
2022-08-24T22:59:16.500Z,101716.28
2022-08-24T23:01:48.703Z,101708.50
2022-08-24T23:04:19.341Z,101706.56
2022-08-24T23:06:47.459Z,101716.97
2022-08-24T23:09:15.984Z,101716.22
2022-08-24T23:11:45.034Z,101727.25
2022-08-24T23:14:14.129Z,101721.56
2022-08-24T23:16:47.711Z,101726.28
2022-08-24T23:19:34.834Z,101721.66
2022-08-24T23:22:03.113Z,101733.69
2022-08-24T23:24:31.189Z,101729.56
2022-08-24T23:26:59.633Z,101728.69
2022-08-24T23:29:27.640Z,101727.19
2022-08-24T23:31:57.114Z,101726.16
2022-08-24T23:34:25.374Z,101725.34
2022-08-24T23:36:53.524Z,101727.34
2022-08-24T23:39:22.146Z,101728.38
2022-08-24T23:41:50.769Z,101719.41
2022-08-24T23:44:21.100Z,101731.34
2022-08-24T23:46:49.246Z,101729.84
2022-08-24T23:49:20.532Z,101729.84
2022-08-24T23:51:49.601Z,101729.06
2022-08-24T23:54:21.168Z,101731.09
2022-08-24T23:56:50.557Z,101712.88
2022-08-24T23:59:20.842Z,101729.50
